sensor_id;sensor_type;location;lat;lon;timestamp;temperature;humidity
53294;DHT22;39181;53.440;5.644;2024-03-23T00:54:23;5.30;99.90
53294;DHT22;39181;53.440;5.644;2024-03-23T00:56:48;5.20;99.90
53294;DHT22;39181;53.440;5.644;2024-03-23T00:59:14;5.30;99.90
53294;DHT22;39181;53.440;5.644;2024-03-23T01:01:40;5.30;99.90
53294;DHT22;39181;53.440;5.644;2024-03-23T01:04:05;5.70;99.90
53294;DHT22;39181;53.440;5.644;2024-03-23T01:06:31;5.40;99.90
53294;DHT22;39181;53.440;5.644;2024-03-23T01:08:57;5.20;99.90
53294;DHT22;39181;53.440;5.644;2024-03-23T01:11:22;5.50;99.90
53294;DHT22;39181;53.440;5.644;2024-03-23T01:13:48;5.20;99.90
53294;DHT22;39181;53.440;5.644;2024-03-23T01:16:13;5.50;99.90
53294;DHT22;39181;53.440;5.644;2024-03-23T01:18:39;5.20;99.90
53294;DHT22;39181;53.440;5.644;2024-03-23T01:21:05;5.50;99.90
53294;DHT22;39181;53.440;5.644;2024-03-23T01:23:30;5.10;99.90
53294;DHT22;39181;53.440;5.644;2024-03-23T01:25:56;5.10;99.90
53294;DHT22;39181;53.440;5.644;2024-03-23T01:28:22;5.50;99.90
53294;DHT22;39181;53.440;5.644;2024-03-23T01:30:49;5.30;99.90
53294;DHT22;39181;53.440;5.644;2024-03-23T01:33:15;5.30;99.90
53294;DHT22;39181;53.440;5.644;2024-03-23T01:35:41;5.20;99.90
53294;DHT22;39181;53.440;5.644;2024-03-23T01:38:06;5.40;99.90
53294;DHT22;39181;53.440;5.644;2024-03-23T01:40:32;5.10;99.90
53294;DHT22;39181;53.440;5.644;2024-03-23T01:42:59;5.40;99.90
53294;DHT22;39181;53.440;5.644;2024-03-23T01:45:27;5.10;99.90
53294;DHT22;39181;53.440;5.644;2024-03-23T01:47:53;5.20;99.90
53294;DHT22;39181;53.440;5.644;2024-03-23T01:50:20;5.20;99.90
53294;DHT22;39181;53.440;5.644;2024-03-23T01:52:47;5.20;99.90
53294;DHT22;39181;53.440;5.644;2024-03-23T01:55:12;5.10;99.90
53294;DHT22;39181;53.440;5.644;2024-03-23T01:57:38;5.30;99.90
53294;DHT22;39181;53.440;5.644;2024-03-23T02:00:05;5.50;99.90
53294;DHT22;39181;53.440;5.644;2024-03-23T02:02:31;5.20;99.90
53294;DHT22;39181;53.440;5.644;2024-03-23T02:04:57;5.00;99.90
53294;DHT22;39181;53.440;5.644;2024-03-23T02:07:23;5.20;99.90
53294;DHT22;39181;53.440;5.644;2024-03-23T02:09:51;5.30;99.90
53294;DHT22;39181;53.440;5.644;2024-03-23T02:12:17;5.00;99.90
53294;DHT22;39181;53.440;5.644;2024-03-23T02:14:43;5.10;99.90
53294;DHT22;39181;53.440;5.644;2024-03-23T02:17:09;5.30;99.90
53294;DHT22;39181;53.440;5.644;2024-03-23T02:19:35;5.40;99.90
53294;DHT22;39181;53.440;5.644;2024-03-23T02:22:01;5.50;99.90
53294;DHT22;39181;53.440;5.644;2024-03-23T02:24:26;5.10;99.90
53294;DHT22;39181;53.440;5.644;2024-03-23T02:26:52;5.10;99.90
53294;DHT22;39181;53.440;5.644;2024-03-23T02:29:17;5.40;99.90
53294;DHT22;39181;53.440;5.644;2024-03-23T02:31:45;5.10;99.90
53294;DHT22;39181;53.440;5.644;2024-03-23T02:34:10;5.10;99.90
53294;DHT22;39181;53.440;5.644;2024-03-23T02:36:36;5.40;99.90
53294;DHT22;39181;53.440;5.644;2024-03-23T02:39:02;5.40;99.90
53294;DHT22;39181;53.440;5.644;2024-03-23T02:41:27;5.20;99.90
53294;DHT22;39181;53.440;5.644;2024-03-23T02:43:53;5.60;99.90
53294;DHT22;39181;53.440;5.644;2024-03-23T02:46:18;5.10;99.90
53294;DHT22;39181;53.440;5.644;2024-03-23T02:48:44;5.60;99.90
53294;DHT22;39181;53.440;5.644;2024-03-23T02:51:10;5.60;99.90
53294;DHT22;39181;53.440;5.644;2024-03-23T02:53:35;5.30;99.90
53294;DHT22;39181;53.440;5.644;2024-03-23T02:56:01;5.60;99.90
53294;DHT22;39181;53.440;5.644;2024-03-23T02:58:27;5.40;99.90
53294;DHT22;39181;53.440;5.644;2024-03-23T03:00:53;5.40;99.90
53294;DHT22;39181;53.440;5.644;2024-03-23T03:03:18;5.70;99.90
53294;DHT22;39181;53.440;5.644;2024-03-23T03:05:44;5.60;99.90
53294;DHT22;39181;53.440;5.644;2024-03-23T03:08:10;5.50;99.90
53294;DHT22;39181;53.440;5.644;2024-03-23T03:10:35;5.70;99.90
53294;DHT22;39181;53.440;5.644;2024-03-23T03:13:02;5.30;99.90
53294;DHT22;39181;53.440;5.644;2024-03-23T03:15:28;5.30;99.90
53294;DHT22;39181;53.440;5.644;2024-03-23T03:17:54;5.30;99.90
53294;DHT22;39181;53.440;5.644;2024-03-23T03:20:19;5.30;99.90
53294;DHT22;39181;53.440;5.644;2024-03-23T03:22:47;5.40;99.90
53294;DHT22;39181;53.440;5.644;2024-03-23T03:25:13;5.50;99.90
53294;DHT22;39181;53.440;5.644;2024-03-23T03:27:39;5.30;99.90
53294;DHT22;39181;53.440;5.644;2024-03-23T03:30:05;5.50;99.90
53294;DHT22;39181;53.440;5.644;2024-03-23T03:32:33;5.50;99.90
53294;DHT22;39181;53.440;5.644;2024-03-23T03:34:58;5.20;99.90
53294;DHT22;39181;53.440;5.644;2024-03-23T03:37:24;5.60;99.90
53294;DHT22;39181;53.440;5.644;2024-03-23T03:39:50;5.50;99.90
53294;DHT22;39181;53.440;5.644;2024-03-23T03:42:16;5.30;99.90
53294;DHT22;39181;53.440;5.644;2024-03-23T03:44:42;5.70;99.90
53294;DHT22;39181;53.440;5.644;2024-03-23T03:47:07;5.70;99.90
53294;DHT22;39181;53.440;5.644;2024-03-23T03:49:33;5.40;99.90
53294;DHT22;39181;53.440;5.644;2024-03-23T03:51:59;5.70;99.90
53294;DHT22;39181;53.440;5.644;2024-03-23T03:54:26;5.60;99.90
53294;DHT22;39181;53.440;5.644;2024-03-23T03:56:52;5.50;99.90
53294;DHT22;39181;53.440;5.644;2024-03-23T03:59:18;5.70;99.90
53294;DHT22;39181;53.440;5.644;2024-03-23T04:01:44;5.50;99.90
53294;DHT22;39181;53.440;5.644;2024-03-23T04:04:10;5.80;99.90
53294;DHT22;39181;53.440;5.644;2024-03-23T04:06:37;5.80;99.90
53294;DHT22;39181;53.440;5.644;2024-03-23T04:09:02;5.90;99.90
53294;DHT22;39181;53.440;5.644;2024-03-23T04:11:28;5.60;99.90
53294;DHT22;39181;53.440;5.644;2024-03-23T04:13:54;5.60;99.90
53294;DHT22;39181;53.440;5.644;2024-03-23T04:16:30;6.00;99.90
53294;DHT22;39181;53.440;5.644;2024-03-23T04:18:55;5.80;99.90
53294;DHT22;39181;53.440;5.644;2024-03-23T04:21:22;5.70;99.90
53294;DHT22;39181;53.440;5.644;2024-03-23T04:23:48;5.80;99.90
53294;DHT22;39181;53.440;5.644;2024-03-23T04:26:15;6.10;99.90
53294;DHT22;39181;53.440;5.644;2024-03-23T04:28:41;6.10;99.90
53294;DHT22;39181;53.440;5.644;2024-03-23T04:31:06;5.90;99.90
53294;DHT22;39181;53.440;5.644;2024-03-23T04:33:32;6.00;99.90
53294;DHT22;39181;53.440;5.644;2024-03-23T04:35:58;6.00;99.90
53294;DHT22;39181;53.440;5.644;2024-03-23T04:38:23;5.90;99.90
53294;DHT22;39181;53.440;5.644;2024-03-23T04:40:56;6.20;99.90
53294;DHT22;39181;53.440;5.644;2024-03-23T04:43:22;6.30;99.90
53294;DHT22;39181;53.440;5.644;2024-03-23T04:45:48;6.20;99.90
53294;DHT22;39181;53.440;5.644;2024-03-23T04:48:14;6.30;99.90
53294;DHT22;39181;53.440;5.644;2024-03-23T04:50:40;6.10;99.90
53294;DHT22;39181;53.440;5.644;2024-03-23T04:53:07;6.30;99.90
53294;DHT22;39181;53.440;5.644;2024-03-23T04:55:32;6.10;99.90
53294;DHT22;39181;53.440;5.644;2024-03-23T04:57:58;6.00;99.90
53294;DHT22;39181;53.440;5.644;2024-03-23T05:00:24;6.20;99.90
53294;DHT22;39181;53.440;5.644;2024-03-23T05:02:50;6.20;99.90
53294;DHT22;39181;53.440;5.644;2024-03-23T05:05:16;6.20;99.90
53294;DHT22;39181;53.440;5.644;2024-03-23T05:07:41;6.10;99.90
53294;DHT22;39181;53.440;5.644;2024-03-23T05:10:09;6.40;99.90
53294;DHT22;39181;53.440;5.644;2024-03-23T05:12:39;6.30;99.90
53294;DHT22;39181;53.440;5.644;2024-03-23T05:15:06;6.20;99.90
53294;DHT22;39181;53.440;5.644;2024-03-23T05:17:32;6.10;99.90
53294;DHT22;39181;53.440;5.644;2024-03-23T05:19:58;6.20;99.90
53294;DHT22;39181;53.440;5.644;2024-03-23T05:22:24;6.40;99.90
53294;DHT22;39181;53.440;5.644;2024-03-23T05:24:49;6.10;99.90
53294;DHT22;39181;53.440;5.644;2024-03-23T05:27:15;6.10;99.90
53294;DHT22;39181;53.440;5.644;2024-03-23T05:29:41;6.30;99.90
53294;DHT22;39181;53.440;5.644;2024-03-23T05:32:07;6.30;99.90
53294;DHT22;39181;53.440;5.644;2024-03-23T05:34:32;6.30;99.90
53294;DHT22;39181;53.440;5.644;2024-03-23T05:36:58;6.40;99.90
53294;DHT22;39181;53.440;5.644;2024-03-23T05:39:24;6.40;99.90
53294;DHT22;39181;53.440;5.644;2024-03-23T05:41:49;6.30;99.90
53294;DHT22;39181;53.440;5.644;2024-03-23T05:44:15;6.40;99.90
53294;DHT22;39181;53.440;5.644;2024-03-23T05:46:41;6.50;99.90
53294;DHT22;39181;53.440;5.644;2024-03-23T05:49:08;6.50;99.90
53294;DHT22;39181;53.440;5.644;2024-03-23T05:51:34;6.50;99.90
53294;DHT22;39181;53.440;5.644;2024-03-23T05:54:00;6.50;99.90
53294;DHT22;39181;53.440;5.644;2024-03-23T05:56:26;6.40;99.90
53294;DHT22;39181;53.440;5.644;2024-03-23T05:58:52;6.40;99.90
53294;DHT22;39181;53.440;5.644;2024-03-23T06:01:18;6.60;99.90
53294;DHT22;39181;53.440;5.644;2024-03-23T06:03:43;6.60;99.90
53294;DHT22;39181;53.440;5.644;2024-03-23T06:06:12;6.70;99.90
53294;DHT22;39181;53.440;5.644;2024-03-23T06:08:39;6.60;99.90
53294;DHT22;39181;53.440;5.644;2024-03-23T06:11:05;6.60;99.90
53294;DHT22;39181;53.440;5.644;2024-03-23T06:13:32;6.70;99.90
53294;DHT22;39181;53.440;5.644;2024-03-23T06:15:59;6.60;99.90
53294;DHT22;39181;53.440;5.644;2024-03-23T06:18:25;6.70;99.90
53294;DHT22;39181;53.440;5.644;2024-03-23T06:20:51;6.50;99.90
53294;DHT22;39181;53.440;5.644;2024-03-23T06:23:16;6.60;99.90
53294;DHT22;39181;53.440;5.644;2024-03-23T06:25:45;6.50;99.90
53294;DHT22;39181;53.440;5.644;2024-03-23T06:28:11;6.50;99.90
53294;DHT22;39181;53.440;5.644;2024-03-23T06:30:36;6.40;99.90
53294;DHT22;39181;53.440;5.644;2024-03-23T06:33:02;6.50;99.90
53294;DHT22;39181;53.440;5.644;2024-03-23T06:35:28;6.60;99.90
53294;DHT22;39181;53.440;5.644;2024-03-23T06:37:53;6.50;99.90
53294;DHT22;39181;53.440;5.644;2024-03-23T06:40:19;6.40;99.90
53294;DHT22;39181;53.440;5.644;2024-03-23T06:42:44;6.50;99.90
53294;DHT22;39181;53.440;5.644;2024-03-23T06:45:10;6.40;99.90
53294;DHT22;39181;53.440;5.644;2024-03-23T06:47:36;6.50;99.90
53294;DHT22;39181;53.440;5.644;2024-03-23T06:50:03;6.40;99.90
53294;DHT22;39181;53.440;5.644;2024-03-23T06:52:29;6.50;99.90
53294;DHT22;39181;53.440;5.644;2024-03-23T06:54:55;6.50;99.90
53294;DHT22;39181;53.440;5.644;2024-03-23T06:57:21;6.50;99.90
53294;DHT22;39181;53.440;5.644;2024-03-23T06:59:47;6.50;99.90
53294;DHT22;39181;53.440;5.644;2024-03-23T07:02:12;6.60;99.90
53294;DHT22;39181;53.440;5.644;2024-03-23T07:04:38;6.60;99.90
53294;DHT22;39181;53.440;5.644;2024-03-23T07:07:07;6.70;99.90
53294;DHT22;39181;53.440;5.644;2024-03-23T07:09:34;7.00;99.90
53294;DHT22;39181;53.440;5.644;2024-03-23T07:12:00;7.10;99.90
53294;DHT22;39181;53.440;5.644;2024-03-23T07:14:26;7.20;99.90
53294;DHT22;39181;53.440;5.644;2024-03-23T07:16:51;7.30;99.90
53294;DHT22;39181;53.440;5.644;2024-03-23T07:19:17;7.30;99.90
53294;DHT22;39181;53.440;5.644;2024-03-23T07:21:44;7.10;99.90
53294;DHT22;39181;53.440;5.644;2024-03-23T07:24:10;7.00;99.90
53294;DHT22;39181;53.440;5.644;2024-03-23T07:26:36;6.90;99.90
53294;DHT22;39181;53.440;5.644;2024-03-23T07:29:06;6.90;99.90
53294;DHT22;39181;53.440;5.644;2024-03-23T07:31:35;6.80;99.90
53294;DHT22;39181;53.440;5.644;2024-03-23T07:34:00;6.70;99.90
53294;DHT22;39181;53.440;5.644;2024-03-23T07:36:26;6.80;99.90
53294;DHT22;39181;53.440;5.644;2024-03-23T07:38:52;6.80;99.90
53294;DHT22;39181;53.440;5.644;2024-03-23T07:41:19;6.90;99.90
53294;DHT22;39181;53.440;5.644;2024-03-23T07:43:46;7.00;99.90
53294;DHT22;39181;53.440;5.644;2024-03-23T07:46:13;7.20;99.90
53294;DHT22;39181;53.440;5.644;2024-03-23T07:48:39;7.20;99.90
53294;DHT22;39181;53.440;5.644;2024-03-23T07:51:09;7.30;99.90
53294;DHT22;39181;53.440;5.644;2024-03-23T07:53:36;7.40;99.90
53294;DHT22;39181;53.440;5.644;2024-03-23T07:56:09;7.60;99.90
53294;DHT22;39181;53.440;5.644;2024-03-23T07:58:36;7.50;99.90
53294;DHT22;39181;53.440;5.644;2024-03-23T08:01:07;7.80;99.90
53294;DHT22;39181;53.440;5.644;2024-03-23T08:03:36;7.80;99.90
53294;DHT22;39181;53.440;5.644;2024-03-23T08:06:21;7.60;99.90
53294;DHT22;39181;53.440;5.644;2024-03-23T08:08:54;7.70;99.90
53294;DHT22;39181;53.440;5.644;2024-03-23T08:11:34;7.70;99.90
53294;DHT22;39181;53.440;5.644;2024-03-23T08:14:00;7.60;99.90
53294;DHT22;39181;53.440;5.644;2024-03-23T08:16:27;7.60;99.90
53294;DHT22;39181;53.440;5.644;2024-03-23T08:18:53;7.80;99.90
53294;DHT22;39181;53.440;5.644;2024-03-23T08:21:19;7.90;99.90
53294;DHT22;39181;53.440;5.644;2024-03-23T08:23:45;7.90;99.90
53294;DHT22;39181;53.440;5.644;2024-03-23T08:26:12;7.90;99.90
53294;DHT22;39181;53.440;5.644;2024-03-23T08:28:38;7.70;99.90
53294;DHT22;39181;53.440;5.644;2024-03-23T08:31:06;7.80;99.90
53294;DHT22;39181;53.440;5.644;2024-03-23T08:33:32;7.90;99.90
53294;DHT22;39181;53.440;5.644;2024-03-23T08:36:00;8.00;99.90
53294;DHT22;39181;53.440;5.644;2024-03-23T08:38:27;8.10;99.90
53294;DHT22;39181;53.440;5.644;2024-03-23T08:41:07;8.30;99.90
53294;DHT22;39181;53.440;5.644;2024-03-23T08:43:39;8.30;99.90
53294;DHT22;39181;53.440;5.644;2024-03-23T08:46:12;8.40;99.90
53294;DHT22;39181;53.440;5.644;2024-03-23T08:48:44;8.50;99.90
53294;DHT22;39181;53.440;5.644;2024-03-23T08:51:12;8.30;99.90
53294;DHT22;39181;53.440;5.644;2024-03-23T08:53:38;8.20;99.90
53294;DHT22;39181;53.440;5.644;2024-03-23T08:56:05;7.80;99.90
53294;DHT22;39181;53.440;5.644;2024-03-23T08:58:32;7.80;99.90
53294;DHT22;39181;53.440;5.644;2024-03-23T09:01:05;8.00;99.90
53294;DHT22;39181;53.440;5.644;2024-03-23T09:03:31;8.10;99.90
53294;DHT22;39181;53.440;5.644;2024-03-23T09:05:57;8.40;99.90
53294;DHT22;39181;53.440;5.644;2024-03-23T09:08:24;8.60;99.90
53294;DHT22;39181;53.440;5.644;2024-03-23T09:10:50;8.60;99.90
53294;DHT22;39181;53.440;5.644;2024-03-23T09:13:15;8.60;99.90
53294;DHT22;39181;53.440;5.644;2024-03-23T09:15:49;8.70;99.90
53294;DHT22;39181;53.440;5.644;2024-03-23T09:18:15;8.70;99.90
53294;DHT22;39181;53.440;5.644;2024-03-23T09:20:41;9.00;99.90
53294;DHT22;39181;53.440;5.644;2024-03-23T09:23:07;8.70;99.90
53294;DHT22;39181;53.440;5.644;2024-03-23T09:25:39;8.60;99.90
53294;DHT22;39181;53.440;5.644;2024-03-23T09:28:06;8.60;99.90
53294;DHT22;39181;53.440;5.644;2024-03-23T09:30:32;8.50;99.90
53294;DHT22;39181;53.440;5.644;2024-03-23T09:32:59;8.60;99.90
53294;DHT22;39181;53.440;5.644;2024-03-23T09:35:24;8.60;99.90
53294;DHT22;39181;53.440;5.644;2024-03-23T09:37:50;8.60;99.90
53294;DHT22;39181;53.440;5.644;2024-03-23T09:40:16;8.70;99.90
53294;DHT22;39181;53.440;5.644;2024-03-23T09:42:42;8.80;99.90
53294;DHT22;39181;53.440;5.644;2024-03-23T09:45:19;8.80;99.90
53294;DHT22;39181;53.440;5.644;2024-03-23T09:47:46;8.90;99.90
53294;DHT22;39181;53.440;5.644;2024-03-23T09:50:13;8.90;99.90
53294;DHT22;39181;53.440;5.644;2024-03-23T09:52:39;8.90;99.90
53294;DHT22;39181;53.440;5.644;2024-03-23T09:55:08;8.80;99.90
53294;DHT22;39181;53.440;5.644;2024-03-23T09:57:34;8.80;99.90
53294;DHT22;39181;53.440;5.644;2024-03-23T10:00:00;8.80;99.90
53294;DHT22;39181;53.440;5.644;2024-03-23T10:02:26;9.00;99.90
53294;DHT22;39181;53.440;5.644;2024-03-23T10:04:51;9.20;99.90
53294;DHT22;39181;53.440;5.644;2024-03-23T10:07:21;9.30;99.90
53294;DHT22;39181;53.440;5.644;2024-03-23T10:09:49;9.30;99.90
53294;DHT22;39181;53.440;5.644;2024-03-23T10:12:19;9.50;99.90
53294;DHT22;39181;53.440;5.644;2024-03-23T10:14:45;9.60;99.90
53294;DHT22;39181;53.440;5.644;2024-03-23T10:19:47;9.80;99.90
53294;DHT22;39181;53.440;5.644;2024-03-23T10:22:18;10.10;99.90
53294;DHT22;39181;53.440;5.644;2024-03-23T10:24:44;9.90;99.90
53294;DHT22;39181;53.440;5.644;2024-03-23T10:27:09;9.70;99.90
53294;DHT22;39181;53.440;5.644;2024-03-23T10:29:38;9.50;99.90
53294;DHT22;39181;53.440;5.644;2024-03-23T10:32:14;9.70;99.90
53294;DHT22;39181;53.440;5.644;2024-03-23T10:34:40;10.00;99.90
53294;DHT22;39181;53.440;5.644;2024-03-23T10:37:07;10.50;99.90
53294;DHT22;39181;53.440;5.644;2024-03-23T10:39:38;10.20;99.90
53294;DHT22;39181;53.440;5.644;2024-03-23T10:42:05;10.40;99.90
53294;DHT22;39181;53.440;5.644;2024-03-23T10:44:31;10.60;99.90
53294;DHT22;39181;53.440;5.644;2024-03-23T10:47:01;10.50;99.90
53294;DHT22;39181;53.440;5.644;2024-03-23T10:49:29;10.30;99.90
53294;DHT22;39181;53.440;5.644;2024-03-23T10:52:05;9.90;99.90
53294;DHT22;39181;53.440;5.644;2024-03-23T10:54:32;9.50;99.90
53294;DHT22;39181;53.440;5.644;2024-03-23T10:57:14;9.20;99.90
53294;DHT22;39181;53.440;5.644;2024-03-23T10:59:42;9.00;99.90
53294;DHT22;39181;53.440;5.644;2024-03-23T11:02:21;8.90;99.90
53294;DHT22;39181;53.440;5.644;2024-03-23T11:04:47;8.80;99.90
53294;DHT22;39181;53.440;5.644;2024-03-23T11:07:33;8.60;99.90
53294;DHT22;39181;53.440;5.644;2024-03-23T11:09:59;8.80;99.90
53294;DHT22;39181;53.440;5.644;2024-03-23T11:12:26;9.00;99.90
53294;DHT22;39181;53.440;5.644;2024-03-23T11:15:01;9.00;99.90
53294;DHT22;39181;53.440;5.644;2024-03-23T11:17:28;9.20;99.90
53294;DHT22;39181;53.440;5.644;2024-03-23T11:20:00;9.50;99.90
53294;DHT22;39181;53.440;5.644;2024-03-23T11:22:47;9.70;99.90
53294;DHT22;39181;53.440;5.644;2024-03-23T11:25:21;9.90;99.90
53294;DHT22;39181;53.440;5.644;2024-03-23T11:27:50;10.00;99.90
53294;DHT22;39181;53.440;5.644;2024-03-23T11:32:44;9.90;99.90
53294;DHT22;39181;53.440;5.644;2024-03-23T11:35:24;9.80;99.90
53294;DHT22;39181;53.440;5.644;2024-03-23T11:38:11;9.50;99.90
53294;DHT22;39181;53.440;5.644;2024-03-23T11:40:41;9.30;99.90
53294;DHT22;39181;53.440;5.644;2024-03-23T11:43:09;9.10;99.90
53294;DHT22;39181;53.440;5.644;2024-03-23T11:45:42;8.90;99.90
53294;DHT22;39181;53.440;5.644;2024-03-23T11:48:09;8.90;99.90
53294;DHT22;39181;53.440;5.644;2024-03-23T11:50:37;9.00;99.90
53294;DHT22;39181;53.440;5.644;2024-03-23T11:55:59;9.40;99.90
53294;DHT22;39181;53.440;5.644;2024-03-23T11:58:27;9.70;99.90
53294;DHT22;39181;53.440;5.644;2024-03-23T12:03:26;9.70;99.90
53294;DHT22;39181;53.440;5.644;2024-03-23T12:05:55;9.50;99.90
53294;DHT22;39181;53.440;5.644;2024-03-23T12:08:23;9.40;99.90
53294;DHT22;39181;53.440;5.644;2024-03-23T12:10:53;9.30;99.90
53294;DHT22;39181;53.440;5.644;2024-03-23T12:13:29;9.30;99.90
53294;DHT22;39181;53.440;5.644;2024-03-23T12:15:55;9.40;99.90
53294;DHT22;39181;53.440;5.644;2024-03-23T12:18:34;9.40;99.90
53294;DHT22;39181;53.440;5.644;2024-03-23T12:21:00;9.30;99.90
53294;DHT22;39181;53.440;5.644;2024-03-23T12:23:25;9.30;99.90
53294;DHT22;39181;53.440;5.644;2024-03-23T12:25:51;9.20;99.90
53294;DHT22;39181;53.440;5.644;2024-03-23T12:28:17;9.10;99.90
53294;DHT22;39181;53.440;5.644;2024-03-23T12:30:42;9.10;99.90
53294;DHT22;39181;53.440;5.644;2024-03-23T12:33:08;9.00;99.90
53294;DHT22;39181;53.440;5.644;2024-03-23T12:35:34;9.00;99.90
53294;DHT22;39181;53.440;5.644;2024-03-23T12:38:00;9.00;99.90
53294;DHT22;39181;53.440;5.644;2024-03-23T12:40:25;9.00;99.90
53294;DHT22;39181;53.440;5.644;2024-03-23T12:42:53;9.20;99.90
53294;DHT22;39181;53.440;5.644;2024-03-23T12:45:19;9.20;99.90
53294;DHT22;39181;53.440;5.644;2024-03-23T12:47:44;9.00;99.90
53294;DHT22;39181;53.440;5.644;2024-03-23T12:50:10;9.20;99.90
53294;DHT22;39181;53.440;5.644;2024-03-23T12:52:37;9.60;99.90
53294;DHT22;39181;53.440;5.644;2024-03-23T12:55:03;9.80;99.90
53294;DHT22;39181;53.440;5.644;2024-03-23T12:57:31;9.90;99.90
53294;DHT22;39181;53.440;5.644;2024-03-23T12:59:57;9.80;99.90
53294;DHT22;39181;53.440;5.644;2024-03-23T13:02:23;9.70;99.90
53294;DHT22;39181;53.440;5.644;2024-03-23T13:04:55;9.80;99.90
53294;DHT22;39181;53.440;5.644;2024-03-23T13:07:21;9.90;99.90
53294;DHT22;39181;53.440;5.644;2024-03-23T13:09:49;10.00;99.90
53294;DHT22;39181;53.440;5.644;2024-03-23T13:12:15;9.90;99.90
53294;DHT22;39181;53.440;5.644;2024-03-23T13:14:41;9.70;99.90
53294;DHT22;39181;53.440;5.644;2024-03-23T13:17:08;9.70;99.90
53294;DHT22;39181;53.440;5.644;2024-03-23T13:19:34;9.70;99.90
53294;DHT22;39181;53.440;5.644;2024-03-23T13:22:00;9.60;99.90
53294;DHT22;39181;53.440;5.644;2024-03-23T13:24:27;9.60;99.90
53294;DHT22;39181;53.440;5.644;2024-03-23T13:26:54;9.50;99.90
53294;DHT22;39181;53.440;5.644;2024-03-23T13:29:20;9.40;99.90
53294;DHT22;39181;53.440;5.644;2024-03-23T13:31:50;9.40;99.90
53294;DHT22;39181;53.440;5.644;2024-03-23T13:34:16;9.30;99.90
53294;DHT22;39181;53.440;5.644;2024-03-23T13:36:43;9.20;99.90
53294;DHT22;39181;53.440;5.644;2024-03-23T13:39:09;9.40;99.90
53294;DHT22;39181;53.440;5.644;2024-03-23T13:41:42;9.30;99.90
53294;DHT22;39181;53.440;5.644;2024-03-23T13:44:13;9.40;99.90
53294;DHT22;39181;53.440;5.644;2024-03-23T13:46:40;9.50;99.90
53294;DHT22;39181;53.440;5.644;2024-03-23T13:49:06;9.50;99.90
53294;DHT22;39181;53.440;5.644;2024-03-23T13:51:32;9.40;99.90
53294;DHT22;39181;53.440;5.644;2024-03-23T13:53:58;9.40;99.90
53294;DHT22;39181;53.440;5.644;2024-03-23T13:56:30;9.30;99.90
53294;DHT22;39181;53.440;5.644;2024-03-23T13:58:56;9.40;99.90
53294;DHT22;39181;53.440;5.644;2024-03-23T14:01:22;9.30;99.90
53294;DHT22;39181;53.440;5.644;2024-03-23T14:03:48;9.30;99.90
53294;DHT22;39181;53.440;5.644;2024-03-23T14:06:14;9.30;99.90
53294;DHT22;39181;53.440;5.644;2024-03-23T14:08:39;9.10;99.90
53294;DHT22;39181;53.440;5.644;2024-03-23T14:11:06;9.10;99.90
53294;DHT22;39181;53.440;5.644;2024-03-23T14:13:31;8.90;99.90
53294;DHT22;39181;53.440;5.644;2024-03-23T14:15:58;8.90;99.90
53294;DHT22;39181;53.440;5.644;2024-03-23T14:18:24;8.90;99.90
53294;DHT22;39181;53.440;5.644;2024-03-23T14:20:52;8.70;99.90
53294;DHT22;39181;53.440;5.644;2024-03-23T14:23:18;8.70;99.90
53294;DHT22;39181;53.440;5.644;2024-03-23T14:25:44;8.70;99.90
53294;DHT22;39181;53.440;5.644;2024-03-23T14:28:10;8.80;99.90
53294;DHT22;39181;53.440;5.644;2024-03-23T14:30:42;8.80;99.90
53294;DHT22;39181;53.440;5.644;2024-03-23T14:33:09;8.90;99.90
53294;DHT22;39181;53.440;5.644;2024-03-23T14:35:35;8.90;99.90
53294;DHT22;39181;53.440;5.644;2024-03-23T14:38:00;8.90;99.90
53294;DHT22;39181;53.440;5.644;2024-03-23T14:40:26;8.80;99.90
53294;DHT22;39181;53.440;5.644;2024-03-23T14:42:53;8.80;99.90
53294;DHT22;39181;53.440;5.644;2024-03-23T14:45:20;8.80;99.90
53294;DHT22;39181;53.440;5.644;2024-03-23T14:47:46;8.70;99.90
53294;DHT22;39181;53.440;5.644;2024-03-23T14:50:12;8.70;99.90
53294;DHT22;39181;53.440;5.644;2024-03-23T14:52:41;8.70;99.90
53294;DHT22;39181;53.440;5.644;2024-03-23T14:55:07;8.80;99.90
53294;DHT22;39181;53.440;5.644;2024-03-23T14:57:34;9.00;99.90
53294;DHT22;39181;53.440;5.644;2024-03-23T15:00:00;9.10;99.90
53294;DHT22;39181;53.440;5.644;2024-03-23T15:02:26;9.20;99.90
53294;DHT22;39181;53.440;5.644;2024-03-23T15:04:54;9.20;99.90
53294;DHT22;39181;53.440;5.644;2024-03-23T15:07:19;9.20;99.90
53294;DHT22;39181;53.440;5.644;2024-03-23T15:09:45;9.30;99.90
53294;DHT22;39181;53.440;5.644;2024-03-23T15:12:11;9.20;99.90
53294;DHT22;39181;53.440;5.644;2024-03-23T15:14:37;9.00;99.90
53294;DHT22;39181;53.440;5.644;2024-03-23T15:17:03;9.00;99.90
53294;DHT22;39181;53.440;5.644;2024-03-23T15:19:32;8.90;99.90
53294;DHT22;39181;53.440;5.644;2024-03-23T15:22:01;8.90;99.90
53294;DHT22;39181;53.440;5.644;2024-03-23T15:24:27;8.90;99.90
53294;DHT22;39181;53.440;5.644;2024-03-23T15:26:52;8.80;99.90
53294;DHT22;39181;53.440;5.644;2024-03-23T15:29:18;8.70;99.90
53294;DHT22;39181;53.440;5.644;2024-03-23T15:31:49;8.60;99.90
53294;DHT22;39181;53.440;5.644;2024-03-23T15:34:21;8.60;99.90
53294;DHT22;39181;53.440;5.644;2024-03-23T15:36:50;8.60;99.90
53294;DHT22;39181;53.440;5.644;2024-03-23T15:39:18;8.60;99.90
53294;DHT22;39181;53.440;5.644;2024-03-23T15:41:45;8.60;99.90
53294;DHT22;39181;53.440;5.644;2024-03-23T15:44:11;8.70;99.90
53294;DHT22;39181;53.440;5.644;2024-03-23T15:46:37;8.80;99.90
53294;DHT22;39181;53.440;5.644;2024-03-23T15:49:02;8.90;99.90
53294;DHT22;39181;53.440;5.644;2024-03-23T15:51:28;8.80;99.90
53294;DHT22;39181;53.440;5.644;2024-03-23T15:54:01;8.70;99.90
53294;DHT22;39181;53.440;5.644;2024-03-23T15:56:29;8.60;99.90
53294;DHT22;39181;53.440;5.644;2024-03-23T15:58:54;8.60;99.90
53294;DHT22;39181;53.440;5.644;2024-03-23T16:01:20;8.70;99.90
53294;DHT22;39181;53.440;5.644;2024-03-23T16:03:47;8.80;99.90
53294;DHT22;39181;53.440;5.644;2024-03-23T16:06:12;8.80;99.90
53294;DHT22;39181;53.440;5.644;2024-03-23T16:08:38;8.80;99.90
53294;DHT22;39181;53.440;5.644;2024-03-23T16:11:07;8.80;99.90
53294;DHT22;39181;53.440;5.644;2024-03-23T16:13:34;8.70;99.90
53294;DHT22;39181;53.440;5.644;2024-03-23T16:16:04;8.60;99.90
53294;DHT22;39181;53.440;5.644;2024-03-23T16:18:33;8.50;99.90
53294;DHT22;39181;53.440;5.644;2024-03-23T16:21:03;8.30;99.90
53294;DHT22;39181;53.440;5.644;2024-03-23T16:23:33;8.30;99.90
53294;DHT22;39181;53.440;5.644;2024-03-23T16:25:59;8.30;99.90
53294;DHT22;39181;53.440;5.644;2024-03-23T16:28:28;8.40;99.90
53294;DHT22;39181;53.440;5.644;2024-03-23T16:31:08;8.50;99.90
53294;DHT22;39181;53.440;5.644;2024-03-23T16:33:35;8.50;99.90
53294;DHT22;39181;53.440;5.644;2024-03-23T16:36:02;8.50;99.90
53294;DHT22;39181;53.440;5.644;2024-03-23T16:38:30;8.40;99.90
53294;DHT22;39181;53.440;5.644;2024-03-23T16:41:05;8.30;99.90
53294;DHT22;39181;53.440;5.644;2024-03-23T16:43:36;8.20;99.90
53294;DHT22;39181;53.440;5.644;2024-03-23T16:46:06;8.20;99.90
53294;DHT22;39181;53.440;5.644;2024-03-23T16:48:33;8.20;99.90